createdAt,value
2023-01-17T00:02:55.481Z,2.20
2023-01-17T00:06:09.944Z,1.80
2023-01-17T00:09:28.092Z,2.30
2023-01-17T00:12:24.991Z,1.90
2023-01-17T00:15:43.289Z,1.90
2023-01-17T00:18:34.549Z,2.40
2023-01-17T00:21:42.653Z,2.10
2023-01-17T00:24:48.252Z,2.00
2023-01-17T00:27:43.510Z,2.30
2023-01-17T00:30:43.617Z,2.30
2023-01-17T00:33:43.956Z,2.10
2023-01-17T00:36:33.164Z,1.60
2023-01-17T00:39:24.575Z,1.90
2023-01-17T00:42:23.877Z,2.00
2023-01-17T00:45:30.294Z,2.50
2023-01-17T00:48:36.179Z,1.70
2023-01-17T00:51:49.435Z,1.80
2023-01-17T00:54:58.367Z,1.70
2023-01-17T00:58:14.996Z,1.70
2023-01-17T01:01:40.708Z,1.80
2023-01-17T01:05:08.899Z,2.00
2023-01-17T01:08:19.703Z,1.80
2023-01-17T01:11:39.539Z,1.60
2023-01-17T01:14:54.181Z,1.60
2023-01-17T01:17:59.651Z,1.80
2023-01-17T01:21:26.463Z,1.50
2023-01-17T01:24:39.292Z,1.20
2023-01-17T01:27:52.102Z,1.10
2023-01-17T01:30:59.511Z,1.30
2023-01-17T01:34:01.557Z,0.80
2023-01-17T01:36:56.189Z,0.70
2023-01-17T01:39:45.524Z,0.80
2023-01-17T01:42:41.671Z,0.70
2023-01-17T01:45:42.309Z,0.50
2023-01-17T01:49:08.886Z,0.90
2023-01-17T01:51:59.424Z,1.10
2023-01-17T01:55:06.845Z,0.70
2023-01-17T01:57:58.131Z,0.80
2023-01-17T02:00:49.601Z,1.00
2023-01-17T02:03:39.500Z,0.80
2023-01-17T02:06:50.515Z,0.90
2023-01-17T02:09:39.993Z,0.60
2023-01-17T02:12:27.453Z,0.70
2023-01-17T02:15:17.524Z,1.00
2023-01-17T02:18:57.990Z,0.80
2023-01-17T02:25:07.330Z,0.90
2023-01-17T02:28:50.964Z,0.70
2023-01-17T02:31:49.905Z,0.70
2023-01-17T02:35:00.636Z,0.80
2023-01-17T02:38:11.068Z,0.50
2023-01-17T02:41:24.387Z,0.80
2023-01-17T02:44:19.989Z,1.00
2023-01-17T02:47:28.671Z,1.30
2023-01-17T02:50:35.949Z,1.00
2023-01-17T02:54:10.305Z,1.10
2023-01-17T02:57:42.107Z,1.00
2023-01-17T03:01:07.731Z,1.10
2023-01-17T03:04:09.134Z,1.10
2023-01-17T03:07:08.214Z,1.10
2023-01-17T03:10:37.613Z,1.10
2023-01-17T03:13:31.076Z,1.40
2023-01-17T03:16:30.618Z,1.40
2023-01-17T03:19:47.313Z,1.00
2023-01-17T03:22:38.636Z,1.00
2023-01-17T03:25:32.935Z,1.10
2023-01-17T03:28:25.581Z,1.20
2023-01-17T03:31:21.980Z,1.30
2023-01-17T03:34:54.466Z,1.20
2023-01-17T03:38:05.230Z,1.50
2023-01-17T03:44:13.220Z,1.50
2023-01-17T03:47:08.755Z,1.10
2023-01-17T03:49:57.092Z,1.10
2023-01-17T03:55:52.528Z,1.20
2023-01-17T03:58:53.606Z,1.00
2023-01-17T04:01:41.182Z,1.40
2023-01-17T04:04:29.586Z,0.90
2023-01-17T04:07:24.231Z,1.40
2023-01-17T04:10:20.734Z,1.40
2023-01-17T04:13:07.748Z,1.20
2023-01-17T04:16:07.697Z,1.30
2023-01-17T04:18:59.609Z,1.10
2023-01-17T04:21:55.528Z,1.30
2023-01-17T04:24:51.021Z,1.10
2023-01-17T04:27:47.471Z,1.20
2023-01-17T04:30:44.972Z,1.30
2023-01-17T04:33:35.112Z,1.10
2023-01-17T04:36:32.724Z,1.40
2023-01-17T04:39:26.804Z,1.30
2023-01-17T04:42:16.293Z,1.50
2023-01-17T04:45:11.646Z,1.50
2023-01-17T04:48:12.366Z,1.60
2023-01-17T04:51:06.057Z,1.20
2023-01-17T04:53:56.048Z,1.10
2023-01-17T04:56:46.230Z,1.30
2023-01-17T04:59:33.325Z,1.20
2023-01-17T05:02:24.780Z,1.50
2023-01-17T05:05:15.691Z,1.70
2023-01-17T05:08:05.935Z,1.50
2023-01-17T05:10:53.444Z,2.10
2023-01-17T05:13:40.727Z,1.10
2023-01-17T05:16:27.804Z,1.70
2023-01-17T05:19:14.770Z,1.10
2023-01-17T05:22:07.175Z,1.10
2023-01-17T05:24:54.167Z,1.00
2023-01-17T05:27:41.009Z,0.70
2023-01-17T05:30:43.496Z,1.20
2023-01-17T05:33:30.324Z,1.30
2023-01-17T05:36:26.846Z,0.80
2023-01-17T05:39:17.731Z,1.60
2023-01-17T05:42:19.792Z,1.70
2023-01-17T05:45:16.843Z,0.80
2023-01-17T05:48:15.702Z,0.70
2023-01-17T05:51:15.812Z,0.60
2023-01-17T05:54:10.466Z,0.50
2023-01-17T05:56:59.935Z,0.50
2023-01-17T05:59:56.820Z,0.30
2023-01-17T06:02:47.189Z,0.10
2023-01-17T06:05:37.850Z,0.90
2023-01-17T06:08:35.217Z,0.40
2023-01-17T06:11:27.665Z,0.70
2023-01-17T06:14:14.780Z,0.60
2023-01-17T06:17:14.470Z,0.60
2023-01-17T06:20:01.552Z,0.40
2023-01-17T06:22:49.656Z,0.60
2023-01-17T06:25:41.759Z,0.50
2023-01-17T06:28:28.821Z,0.40
2023-01-17T06:31:19.276Z,0.40
2023-01-17T06:34:06.372Z,0.20
2023-01-17T06:36:55.336Z,-0.20
2023-01-17T06:39:45.144Z,0.20
2023-01-17T06:42:33.282Z,0.20
2023-01-17T06:45:24.269Z,0.10
2023-01-17T06:48:18.752Z,-0.10
2023-01-17T06:51:11.866Z,0.00
2023-01-17T06:54:01.937Z,0.00
2023-01-17T06:56:56.526Z,0.00
2023-01-17T06:59:45.910Z,0.50
2023-01-17T07:02:33.165Z,0.20
2023-01-17T07:05:20.647Z,0.10
2023-01-17T07:08:22.485Z,0.00
2023-01-17T07:11:15.255Z,0.90
2023-01-17T07:14:02.952Z,0.20
2023-01-17T07:16:50.415Z,0.30
2023-01-17T07:19:42.918Z,0.30
2023-01-17T07:22:30.339Z,0.20
2023-01-17T07:25:42.983Z,-0.10
2023-01-17T07:28:35.596Z,0.10
2023-01-17T07:31:22.663Z,-0.10
2023-01-17T07:34:19.028Z,0.00
2023-01-17T07:37:09.290Z,0.00
2023-01-17T07:40:04.299Z,-0.30
2023-01-17T07:43:00.229Z,-0.50
2023-01-17T07:46:19.436Z,-0.50
2023-01-17T07:49:15.888Z,-0.70
2023-01-17T07:52:07.195Z,0.10
2023-01-17T07:55:01.738Z,-0.80
2023-01-17T07:57:56.585Z,-0.20
2023-01-17T08:00:49.639Z,-0.20
2023-01-17T08:03:49.519Z,-0.20
2023-01-17T08:06:47.223Z,0.00
2023-01-17T08:09:49.350Z,0.30
2023-01-17T08:12:59.761Z,-0.50
2023-01-17T08:15:54.778Z,0.10
2023-01-17T08:18:53.882Z,0.10
2023-01-17T08:21:40.757Z,0.20
2023-01-17T08:24:38.260Z,0.40
2023-01-17T08:27:40.770Z,0.30
2023-01-17T08:30:37.173Z,0.50
2023-01-17T08:33:24.291Z,0.90
2023-01-17T08:36:14.061Z,0.50
2023-01-17T08:39:06.432Z,1.00
2023-01-17T08:41:59.208Z,0.70
2023-01-17T08:44:48.657Z,0.80
2023-01-17T08:47:40.992Z,0.80
2023-01-17T08:50:41.949Z,1.30
2023-01-17T08:53:43.341Z,0.70
2023-01-17T08:56:36.353Z,1.10
2023-01-17T08:59:34.889Z,0.90
2023-01-17T09:02:45.813Z,0.80
2023-01-17T09:05:40.614Z,1.20
2023-01-17T09:08:31.915Z,0.70
2023-01-17T09:11:24.189Z,0.70
2023-01-17T09:17:28.661Z,0.90
2023-01-17T09:20:15.807Z,1.30
2023-01-17T09:23:07.301Z,1.10
2023-01-17T09:26:02.810Z,0.70
2023-01-17T09:29:03.083Z,1.40
2023-01-17T09:32:03.541Z,1.20
2023-01-17T09:36:43.674Z,1.20
2023-01-17T09:38:52.904Z,1.60
2023-01-17T09:42:13.316Z,2.80
2023-01-17T09:45:16.045Z,2.50
2023-01-17T09:48:12.569Z,2.30
2023-01-17T09:51:15.618Z,2.80
2023-01-17T09:54:20.147Z,1.90
2023-01-17T10:00:59.723Z,2.00
2023-01-17T10:04:15.003Z,1.50
2023-01-17T10:07:45.284Z,1.40
2023-01-17T10:11:10.920Z,1.20
2023-01-17T10:14:20.925Z,1.30
2023-01-17T10:21:19.399Z,1.40
2023-01-17T10:24:24.932Z,1.40
2023-01-17T10:27:47.669Z,2.10
2023-01-17T10:34:22.688Z,1.50
2023-01-17T10:37:20.146Z,1.60
2023-01-17T10:40:46.433Z,1.70
2023-01-17T10:44:03.083Z,1.50
2023-01-17T10:47:07.520Z,2.20
2023-01-17T10:50:06.810Z,1.80
2023-01-17T10:53:02.927Z,2.00
2023-01-17T10:56:13.196Z,1.70
2023-01-17T10:59:41.139Z,1.70
2023-01-17T11:02:35.679Z,1.90
2023-01-17T11:05:38.620Z,2.30
2023-01-17T11:12:02.192Z,2.20
2023-01-17T11:18:51.167Z,2.10
2023-01-17T11:22:23.256Z,2.30
2023-01-17T11:25:27.471Z,2.60
2023-01-17T11:28:34.973Z,2.60
2023-01-17T11:31:25.712Z,2.80
2023-01-17T11:34:33.087Z,3.00
2023-01-17T11:38:16.823Z,3.10
2023-01-17T11:41:26.944Z,3.00
2023-01-17T11:44:43.065Z,2.70
2023-01-17T11:47:36.919Z,3.10
2023-01-17T11:50:32.290Z,2.70
2023-01-17T11:53:41.447Z,2.70
2023-01-17T11:56:50.591Z,2.70
2023-01-17T11:59:48.543Z,2.70
2023-01-17T12:02:52.372Z,2.60
2023-01-17T12:06:31.803Z,2.50
2023-01-17T12:09:43.405Z,2.30
2023-01-17T12:13:11.453Z,2.10
2023-01-17T12:16:35.643Z,1.80
2023-01-17T12:19:28.532Z,2.30
2023-01-17T12:22:24.632Z,2.10
2023-01-17T12:25:30.528Z,2.60
2023-01-17T12:28:56.014Z,2.50
2023-01-17T12:32:04.999Z,2.90
2023-01-17T12:34:56.028Z,2.50
2023-01-17T12:38:04.273Z,2.70
2023-01-17T12:41:00.041Z,2.70
2023-01-17T12:43:57.304Z,2.50
2023-01-17T12:46:50.298Z,2.30
2023-01-17T12:50:06.601Z,2.10
2023-01-17T12:53:06.256Z,2.30
2023-01-17T12:56:19.660Z,2.20
2023-01-17T12:59:25.068Z,2.20
2023-01-17T13:03:08.940Z,2.30
2023-01-17T13:05:59.873Z,2.20
2023-01-17T13:08:59.988Z,1.90
2023-01-17T13:11:51.952Z,3.20
2023-01-17T13:14:41.810Z,2.30
2023-01-17T13:17:57.439Z,2.30
2023-01-17T13:20:56.357Z,2.60
2023-01-17T13:24:06.158Z,2.50
2023-01-17T13:26:56.202Z,2.80
2023-01-17T13:30:32.367Z,2.90
2023-01-17T13:33:27.897Z,2.60
2023-01-17T13:36:47.656Z,2.80
2023-01-17T13:40:18.429Z,2.60
2023-01-17T13:43:13.566Z,2.60
2023-01-17T13:46:05.641Z,2.60
2023-01-17T13:49:36.895Z,2.80
2023-01-17T13:52:33.260Z,2.70
2023-01-17T13:55:53.532Z,2.70
2023-01-17T13:58:57.559Z,2.50
2023-01-17T14:02:13.285Z,2.70
2023-01-17T14:05:35.637Z,2.50
2023-01-17T14:08:24.720Z,2.70
2023-01-17T14:11:14.706Z,2.50
2023-01-17T14:14:53.260Z,2.50
2023-01-17T14:18:30.994Z,2.60
2023-01-17T14:21:44.893Z,2.70
2023-01-17T14:24:40.747Z,2.70
2023-01-17T14:27:30.806Z,2.70
2023-01-17T14:30:21.117Z,2.60
2023-01-17T14:33:18.552Z,2.60
2023-01-17T14:36:08.699Z,2.60
2023-01-17T14:38:57.401Z,2.30
2023-01-17T14:41:53.449Z,2.40
2023-01-17T14:45:04.679Z,2.50
2023-01-17T14:47:53.429Z,2.30
2023-01-17T14:50:53.397Z,2.50
2023-01-17T14:53:53.858Z,2.80
2023-01-17T14:56:43.792Z,2.40
2023-01-17T14:59:32.806Z,2.40
2023-01-17T15:02:28.915Z,2.30
2023-01-17T15:05:25.928Z,2.50
2023-01-17T15:08:15.417Z,2.30
2023-01-17T15:11:23.908Z,2.60
2023-01-17T15:14:45.230Z,2.40
2023-01-17T15:17:39.469Z,2.20
2023-01-17T15:20:27.317Z,2.50
2023-01-17T15:23:53.559Z,2.30
2023-01-17T15:26:55.317Z,2.10
2023-01-17T15:30:09.992Z,2.40
2023-01-17T15:33:11.535Z,2.00
2023-01-17T15:36:58.660Z,2.00
2023-01-17T15:42:58.564Z,2.40
2023-01-17T15:46:04.241Z,2.00
2023-01-17T15:48:56.049Z,1.90
2023-01-17T15:51:58.767Z,1.60
2023-01-17T15:54:53.674Z,1.90
2023-01-17T15:57:43.397Z,1.80
2023-01-17T16:01:00.379Z,1.90
2023-01-17T16:03:57.380Z,1.80
2023-01-17T16:06:56.083Z,1.70
2023-01-17T16:09:47.365Z,1.70
2023-01-17T16:12:51.485Z,1.70
2023-01-17T16:19:24.369Z,1.80
2023-01-17T16:22:26.327Z,1.70
2023-01-17T16:25:30.524Z,1.80
2023-01-17T16:28:23.489Z,1.70
2023-01-17T16:31:20.228Z,2.00
2023-01-17T16:34:21.700Z,1.60
2023-01-17T16:37:31.816Z,1.80
2023-01-17T16:40:26.683Z,1.60
2023-01-17T16:43:43.317Z,1.30
2023-01-17T16:46:53.024Z,1.70
2023-01-17T16:49:48.476Z,1.60
2023-01-17T16:52:44.597Z,1.70
2023-01-17T16:55:34.923Z,1.40
2023-01-17T16:58:34.964Z,1.80
2023-01-17T17:01:45.724Z,2.20
2023-01-17T17:04:43.171Z,1.90
2023-01-17T17:10:57.733Z,1.80
2023-01-17T17:14:39.717Z,1.80
2023-01-17T17:17:33.764Z,1.90
2023-01-17T17:21:00.972Z,1.70
2023-01-17T17:23:57.997Z,1.80
2023-01-17T17:27:14.939Z,1.90
2023-01-17T17:30:14.064Z,1.50
2023-01-17T17:33:17.057Z,1.90
2023-01-17T17:39:37.370Z,2.50
2023-01-17T17:42:27.673Z,1.60
2023-01-17T17:49:10.995Z,1.30
2023-01-17T17:52:32.339Z,1.60
2023-01-17T17:55:56.085Z,1.50
2023-01-17T18:00:03.229Z,1.80
2023-01-17T18:03:03.095Z,1.40
2023-01-17T18:15:56.207Z,1.70
2023-01-17T18:22:44.614Z,1.40
2023-01-17T18:25:59.952Z,1.20
2023-01-17T18:29:06.073Z,1.20
2023-01-17T18:32:38.508Z,1.20
2023-01-17T18:36:17.892Z,1.00
2023-01-17T18:44:45.112Z,1.20
2023-01-17T18:47:58.671Z,1.20
2023-01-17T18:51:34.034Z,1.10
2023-01-17T18:55:11.555Z,1.60
2023-01-17T19:05:00.234Z,1.00
2023-01-17T19:07:53.010Z,0.80
2023-01-17T19:14:54.618Z,1.20
2023-01-17T19:18:31.714Z,1.20
2023-01-17T19:27:05.077Z,1.50
2023-01-17T19:30:26.260Z,1.30
2023-01-17T19:33:18.128Z,1.40
2023-01-17T19:37:05.542Z,1.30
2023-01-17T20:25:38.125Z,1.10
2023-01-17T20:32:30.111Z,1.40
2023-01-17T20:35:28.772Z,1.00
2023-01-17T20:38:23.887Z,0.90
2023-01-17T20:41:18.493Z,0.60
2023-01-17T20:44:20.277Z,0.90
2023-01-17T20:47:10.768Z,0.90
2023-01-17T20:50:08.520Z,1.20
2023-01-17T20:53:33.127Z,1.30
2023-01-17T20:56:53.439Z,1.00
2023-01-17T20:59:40.395Z,0.80
2023-01-17T21:02:30.816Z,1.60
2023-01-17T21:05:32.659Z,1.10
2023-01-17T21:08:24.033Z,1.10
2023-01-17T21:11:39.797Z,0.90
2023-01-17T21:14:34.084Z,0.90
2023-01-17T21:17:22.205Z,1.10
2023-01-17T21:20:17.032Z,1.00
2023-01-17T21:23:26.933Z,0.90
2023-01-17T21:26:22.039Z,0.80
2023-01-17T21:29:19.200Z,1.30
2023-01-17T21:32:20.693Z,1.00
2023-01-17T21:35:08.678Z,1.00
2023-01-17T21:37:56.288Z,0.80
2023-01-17T21:40:46.853Z,1.80
2023-01-17T21:43:46.847Z,0.90
2023-01-17T21:46:56.173Z,1.20
2023-01-17T21:49:46.790Z,0.80
2023-01-17T21:52:33.882Z,0.70
2023-01-17T21:55:50.160Z,1.40
2023-01-17T21:58:54.091Z,0.80
2023-01-17T22:01:43.393Z,0.70
2023-01-17T22:04:34.764Z,0.80
2023-01-17T22:07:22.263Z,1.30
2023-01-17T22:10:31.455Z,1.80
2023-01-17T22:13:37.073Z,0.90
2023-01-17T22:16:32.916Z,0.60
2023-01-17T22:19:20.512Z,0.60
2023-01-17T22:22:11.810Z,0.80
2023-01-17T22:25:01.376Z,1.00
2023-01-17T22:30:57.246Z,0.90
2023-01-17T22:33:46.800Z,1.10
2023-01-17T22:36:36.537Z,0.90
2023-01-17T22:39:23.419Z,1.20
2023-01-17T22:42:10.201Z,0.80
2023-01-17T22:44:57.810Z,1.00
2023-01-17T22:47:44.711Z,0.80
2023-01-17T22:50:31.499Z,1.10
2023-01-17T22:53:18.346Z,1.10
2023-01-17T22:56:13.021Z,1.00
2023-01-17T22:59:01.057Z,1.20
2023-01-17T23:01:47.985Z,0.90
2023-01-17T23:04:34.720Z,0.80
2023-01-17T23:07:27.877Z,0.90
2023-01-17T23:10:34.848Z,0.80
2023-01-17T23:13:21.725Z,0.80
2023-01-17T23:16:27.647Z,0.80
2023-01-17T23:19:24.306Z,1.00
2023-01-17T23:22:16.398Z,1.20
2023-01-17T23:25:13.317Z,0.90
2023-01-17T23:28:11.766Z,0.80
2023-01-17T23:31:07.345Z,0.90
2023-01-17T23:33:54.132Z,1.40
2023-01-17T23:36:40.972Z,0.90
2023-01-17T23:39:28.633Z,1.00
2023-01-17T23:42:34.967Z,1.10
2023-01-17T23:45:21.708Z,1.50
2023-01-17T23:48:11.906Z,1.30
2023-01-17T23:51:01.042Z,1.40
2023-01-17T23:53:48.716Z,1.80
2023-01-17T23:56:35.469Z,1.90
2023-01-17T23:59:22.291Z,1.40
